Agia Anna — SW8197 — position and weather

sailwx.info

Track history (hours):
 
Tides and Currents Weather Stations Pressure Air Temp Water Temp Dewpoint Dewpoint Depression Visibility Wind Speed Wind Dir Waves Ship Positions

Agia Anna

Last reported at 2018-Jan-21 14:02 UTC. Time now 2018-Jan-22 02:47 UTC.
Position N 40°17' E 024°03'.

Length 32 m; draft 2 m.

Type: Passenger vessel. MMSI: 237010400.

Date/timePositionNaut miles runAvg speedWind from/ knotsBaromVisibWave heightAir tempDewpointWater temp
2018-Jan-21 14:02N 40°17' E 024°03'0 9.1
2018-Jan-21 14:00N 40°17' E 024°03'4 7.9
2018-Jan-21 13:30N 40°17' E 024°08'3 6.7
2018-Jan-21 13:00N 40°14' E 024°11'4 5.6
2018-Jan-21 12:19N 40°11' E 024°14'2 5.2
2018-Jan-21 11:58N 40°10' E 024°16'3 5.2
2018-Jan-21 11:25N 40°08' E 024°17'2 5.0
2018-Jan-21 10:58N 40°10' E 024°17'2 4.9
2018-Jan-21 10:30N 40°11' E 024°14'4 6.0
2018-Jan-21 09:54N 40°14' E 024°11'5 0.2
2018-Jan-20 11:53N 40°10' E 024°16'3 6.0
2018-Jan-20 11:26N 40°08' E 024°17'2 4.2
2018-Jan-20 10:58N 40°09' E 024°17'4 6.3
2018-Jan-20 10:24N 40°12' E 024°13'1 0.7
2018-Jan-20 08:54N 40°11' E 024°14'2 4.6
2018-Jan-20 08:28N 40°10' E 024°16'2 4.0
2018-Jan-20 07:52N 40°08' E 024°17'2 4.2
2018-Jan-20 07:28N 40°09' E 024°17'3 5.0
2018-Jan-20 06:57N 40°11' E 024°14'3 6.5
2018-Jan-20 06:28N 40°14' E 024°12'10 9.1
2018-Jan-20 05:23N 40°18' E 024°01'11 0.5
2018-Jan-19 06:45N 40°12' E 024°13'2 5.3
2018-Jan-19 06:23N 40°14' E 024°12'  
2018-Jan-12 14:52N 40°17' E 024°03'6 8.3
2018-Jan-12 14:08N 40°15' E 024°10'1 9.1
2018-Jan-12 13:58N 40°14' E 024°12'4 6.1
2018-Jan-12 13:20N 40°11' E 024°15'4 2.9
2018-Jan-12 11:55N 40°08' E 024°17'2 4.9
2018-Jan-12 11:29N 40°10' E 024°17'4 6.0
2018-Jan-12 10:51N 40°12' E 024°13'1 0.9
2018-Jan-12 09:28N 40°11' E 024°14'5 2.6
2018-Jan-12 07:44N 40°07' E 024°17'2 3.9
2018-Jan-12 07:12N 40°10' E 024°17'1 6.4
2018-Jan-12 07:00N 40°10' E 024°16'4 5.3
2018-Jan-12 06:11N 40°14' E 024°12'10 7.6
2018-Jan-12 04:51N 40°18' E 024°00'7 0.5
2018-Jan-11 14:13N 40°15' E 024°08'  
Track history (hours):
 
Tides and Currents Weather Stations Pressure Air Temp Water Temp Dewpoint Dewpoint Depression Visibility Wind Speed Wind Dir Waves Ship Positions

Agia Anna

Last reported at 2018-Jan-21 14:02 UTC. Time now 2018-Jan-22 02:47 UTC.
Position N 40°17' E 024°03'.

Length 32 m; draft 2 m.

Type: Passenger vessel. MMSI: 237010400.

Date/timePositionNaut miles runAvg speedWind from/ knotsBaromVisibWave heightAir tempDewpointWater temp
2018-Jan-21 14:02N 40°17' E 024°03'0 9.1
2018-Jan-21 14:00N 40°17' E 024°03'4 7.9
2018-Jan-21 13:30N 40°17' E 024°08'3 6.7
2018-Jan-21 13:00N 40°14' E 024°11'4 5.6
2018-Jan-21 12:19N 40°11' E 024°14'2 5.2
2018-Jan-21 11:58N 40°10' E 024°16'3 5.2
2018-Jan-21 11:25N 40°08' E 024°17'2 5.0
2018-Jan-21 10:58N 40°10' E 024°17'2 4.9
2018-Jan-21 10:30N 40°11' E 024°14'4 6.0
2018-Jan-21 09:54N 40°14' E 024°11'5 0.2
2018-Jan-20 11:53N 40°10' E 024°16'3 6.0
2018-Jan-20 11:26N 40°08' E 024°17'2 4.2
2018-Jan-20 10:58N 40°09' E 024°17'4 6.3
2018-Jan-20 10:24N 40°12' E 024°13'1 0.7
2018-Jan-20 08:54N 40°11' E 024°14'2 4.6
2018-Jan-20 08:28N 40°10' E 024°16'2 4.0
2018-Jan-20 07:52N 40°08' E 024°17'2 4.2
2018-Jan-20 07:28N 40°09' E 024°17'3 5.0
2018-Jan-20 06:57N 40°11' E 024°14'3 6.5
2018-Jan-20 06:28N 40°14' E 024°12'10 9.1
2018-Jan-20 05:23N 40°18' E 024°01'11 0.5
2018-Jan-19 06:45N 40°12' E 024°13'2 5.3
2018-Jan-19 06:23N 40°14' E 024°12'  
2018-Jan-12 14:52N 40°17' E 024°03'6 8.3
2018-Jan-12 14:08N 40°15' E 024°10'1 9.1
2018-Jan-12 13:58N 40°14' E 024°12'4 6.1
2018-Jan-12 13:20N 40°11' E 024°15'4 2.9
2018-Jan-12 11:55N 40°08' E 024°17'2 4.9
2018-Jan-12 11:29N 40°10' E 024°17'4 6.0
2018-Jan-12 10:51N 40°12' E 024°13'1 0.9
2018-Jan-12 09:28N 40°11' E 024°14'5 2.6
2018-Jan-12 07:44N 40°07' E 024°17'2 3.9
2018-Jan-12 07:12N 40°10' E 024°17'1 6.4
2018-Jan-12 07:00N 40°10' E 024°16'4 5.3
2018-Jan-12 06:11N 40°14' E 024°12'10 7.6
2018-Jan-12 04:51N 40°18' E 024°00'7 0.5
2018-Jan-11 14:13N 40°15' E 024°08'  

Dump ship's entire track history